Time;durP1;ratioP1;P1;durP2;ratioP2;P2;SDS_P1;SDS_P2;PMS_P1;PMS_P2;Temp;Humidity;BMP_temperature;BMP_pressure;BME280_temperature;BME280_humidity;BME280_pressure;Samples;Min_cycle;Max_cycle;Signal;HPM_P1;HPM_P2
2024/01/03 22:14:17;;;;;;;713.40;679.20;;;8.50;99.90;;;;;;6132862;22;1353996;-89
2024/01/03 22:16:45;;;;;;;737.17;700.27;;;8.40;99.90;;;;;;6060088;23;20434;-91
2024/01/03 22:19:12;;;;;;;744.47;705.20;;;8.40;99.90;;;;;;6039228;23;20413;-92
2024/01/03 22:21:39;;;;;;;700.40;664.70;;;8.40;99.90;;;;;;6037507;23;20424;-93
2024/01/03 22:24:06;;;;;;;692.50;657.83;;;8.40;99.90;;;;;;6011131;23;20422;-93
2024/01/03 22:26:37;;;;;;;626.60;598.60;;;8.30;99.90;;;;;;6010540;23;20414;-93
2024/01/03 22:29:05;;;;;;;608.20;581.27;;;8.30;99.90;;;;;;6011003;23;20713;-91
2024/01/03 22:31:34;;;;;;;611.67;584.33;;;8.30;99.90;;;;;;6010809;23;20429;-92
2024/01/03 22:34:01;;;;;;;580.33;556.97;;;8.20;99.90;;;;;;6010323;23;20904;-92
2024/01/03 22:36:29;;;;;;;588.17;563.13;;;8.20;99.90;;;;;;6010469;23;20521;-89
2024/01/03 22:38:57;;;;;;;606.70;579.27;;;8.20;99.90;;;;;;6009764;23;20406;-93
2024/01/03 22:41:24;;;;;;;607.47;580.13;;;8.10;99.90;;;;;;6010641;23;20415;-93
2024/01/03 22:43:50;;;;;;;590.87;564.47;;;8.20;99.90;;;;;;6010472;23;20444;-93
2024/01/03 22:46:17;;;;;;;555.73;532.40;;;8.00;99.90;;;;;;6010412;23;20444;-92
2024/01/03 22:48:46;;;;;;;527.90;506.07;;;8.00;99.90;;;;;;6010318;23;20445;-92
2024/01/03 22:51:13;;;;;;;527.90;506.77;;;8.00;99.90;;;;;;6010509;23;20418;-91
2024/01/03 22:53:40;;;;;;;540.07;518.13;;;7.90;99.90;;;;;;6010087;23;20438;-92
2024/01/03 22:56:07;;;;;;;554.73;531.87;;;7.80;99.90;;;;;;6008865;23;20446;-92
2024/01/03 22:58:34;;;;;;;600.70;574.60;;;7.80;99.90;;;;;;6009997;23;20446;-92
2024/01/03 23:01:01;;;;;;;622.00;594.90;;;7.70;99.90;;;;;;6019808;23;20830;-91
2024/01/03 23:03:27;;;;;;;600.47;574.87;;;7.70;99.90;;;;;;6008944;23;20435;-92
2024/01/03 23:05:56;;;;;;;631.17;603.77;;;7.70;99.90;;;;;;6009741;23;20427;-92
2024/01/03 23:08:23;;;;;;;640.40;613.07;;;7.70;99.90;;;;;;6009770;23;20410;-91
2024/01/03 23:10:49;;;;;;;700.37;668.67;;;7.70;99.90;;;;;;6008863;23;20425;-91
2024/01/03 23:13:16;;;;;;;661.37;633.53;;;7.70;99.90;;;;;;6010031;23;21060;-92
2024/01/03 23:15:43;;;;;;;735.37;700.20;;;7.70;99.90;;;;;;6008214;23;20809;-92
2024/01/03 23:18:10;;;;;;;749.17;714.13;;;7.70;99.90;;;;;;6010106;23;20450;-92
2024/01/03 23:20:37;;;;;;;760.20;725.20;;;7.70;99.90;;;;;;6008421;23;20983;-91
2024/01/03 23:23:06;;;;;;;741.27;707.33;;;7.70;99.90;;;;;;6010255;23;20943;-91
2024/01/03 23:25:32;;;;;;;765.97;730.47;;;7.60;99.90;;;;;;6008306;23;20497;-91
2024/01/03 23:27:59;;;;;;;755.20;720.77;;;7.60;99.90;;;;;;6010568;23;20752;-92
2024/01/03 23:30:26;;;;;;;733.33;701.67;;;7.70;99.90;;;;;;6010149;23;20425;-91
2024/01/03 23:32:54;;;;;;;767.97;732.87;;;7.80;99.90;;;;;;6010150;23;20434;-91
2024/01/03 23:35:21;;;;;;;782.50;745.30;;;7.80;99.90;;;;;;6009414;23;20428;-91
2024/01/03 23:37:48;;;;;;;781.13;743.33;;;7.80;99.90;;;;;;6008467;23;20767;-91
2024/01/03 23:40:16;;;;;;;794.77;755.87;;;7.80;99.90;;;;;;6008209;23;20815;-90
2024/01/03 23:42:43;;;;;;;801.93;762.20;;;7.90;99.90;;;;;;6010112;23;20456;-89
2024/01/03 23:45:10;;;;;;;817.43;774.37;;;7.80;99.90;;;;;;6010007;23;20418;-89
2024/01/03 23:47:37;;;;;;;815.40;772.20;;;7.90;99.90;;;;;;6008362;23;20425;-89
2024/01/03 23:50:05;;;;;;;833.40;787.00;;;7.90;99.90;;;;;;6009727;23;20903;-89
2024/01/03 23:52:33;;;;;;;831.80;785.90;;;7.90;99.90;;;;;;6009921;23;20460;-89
2024/01/03 23:55:00;;;;;;;819.33;774.57;;;8.00;99.90;;;;;;6009835;23;20497;-89
2024/01/03 23:57:28;;;;;;;815.17;770.60;;;8.00;99.90;;;;;;6010042;23;20442;-90
2024/01/03 23:59:55;;;;;;;836.47;787.30;;;7.90;99.90;;;;;;6009655;23;20414;-89
